METAR Data
IDs: Format: Raw Decoded Include TAF

Data at: 0645 UTC 08 May 2021

KGOO 080635Z AUTO 00000KT 10SM CLR 13/M01 A3005 RMK A01
KGOO 080615Z AUTO 00000KT 10SM CLR 13/M01 A3006 RMK A01
KGOO 080555Z AUTO 00000KT 10SM CLR 14/M01 A3006 RMK A01
KGOO 080535Z AUTO 00000KT 10SM CLR 15/M01 A3006 RMK A01
KGOO 080515Z AUTO 00000KT 10SM CLR 14/M00 A3006 RMK A01
KGOO 080455Z AUTO 00000KT 10SM CLR 14/M00 A3006 RMK A01
KGOO 080435Z AUTO 00000KT 10SM CLR 15/M01 A3006 RMK A01
KGOO 080415Z AUTO 00000KT 10SM CLR 15/M00 A3005 RMK A01
KGOO 080355Z AUTO 00000KT 10SM CLR 16/M00 A3005 RMK A01
KGOO 080335Z AUTO 00000KT 10SM CLR 16/00 A3004 RMK A01
KGOO 080315Z AUTO 00000KT 10SM CLR 17/00 A3003 RMK A01
KGOO 080250Z AUTO 00000KT 10SM CLR 18/00 A3003 RMK A01
KGOO 080235Z AUTO 00000KT 10SM CLR 18/00 A3003 RMK A01
KGOO 080215Z AUTO 00000KT 10SM CLR 19/01 A3003 RMK A01
KGOO 080155Z AUTO 00000KT 10SM CLR 19/01 A3003 RMK A01
KGOO 080130Z AUTO 00000KT 10SM CLR 19/M00 A3003 RMK A01
KGOO 080115Z AUTO 28003KT 10SM CLR 20/00 A3003 RMK A01
KGOO 080055Z AUTO 00000G10KT 10SM CLR 20/M01 A3004 RMK A01
KGOO 080035Z AUTO 00000KT 10SM CLR 19/M02 A3003 RMK A01
KGOO 080015Z AUTO 00000G10KT 10SM CLR 20/M01 A3003 RMK A01
KGOO 072355Z AUTO 31008KT 260V350 10SM CLR 20/00 A3003 RMK A01
KGOO 072335Z AUTO 29004KT 10SM CLR 20/01 A3003 RMK A01
KGOO 072315Z AUTO 00000G10KT 10SM CLR 20/02 A3003 RMK A01
KGOO 072255Z AUTO VRB03G10KT 10SM CLR 20/02 A3003 RMK A01
KGOO 072235Z AUTO VRB04G10KT 10SM CLR 21/02 A3003 RMK A01
KGOO 072215Z AUTO 00000KT 10SM CLR 21/02 A3004 RMK A01
KGOO 072155Z AUTO VRB05G12KT 10SM CLR 19/02 A3004 RMK A01
KGOO 072135Z AUTO 23004G10KT 10SM CLR 21/03 A3005 RMK A01
KGOO 072110Z AUTO 24006KT 10SM CLR 21/03 A3005 RMK A01
KGOO 072055Z AUTO VRB04G10KT 10SM CLR 19/02 A3005 RMK A01
KGOO 072035Z AUTO 23004KT 10SM CLR 20/01 A3005 RMK A01
KGOO 072015Z AUTO VRB05KT 10SM CLR 19/03 A3005 RMK A01
KGOO 071955Z AUTO 00000G10KT 10SM CLR 20/03 A3006 RMK A01
KGOO 071935Z AUTO 31004G11KT 10SM CLR 18/05 A3006 RMK A01
KGOO 071915Z AUTO 00000KT 10SM CLR 18/06 A3006 RMK A01
KGOO 071855Z AUTO 00000KT 10SM CLR 18/06 A3005 RMK A01
KGOO 071835Z AUTO 00000KT 10SM CLR 19/01 A3005 RMK A01
KGOO 071815Z AUTO 00000KT 10SM CLR 18/M01 A3004 RMK A01
KGOO 071755Z AUTO 00000KT 10SM CLR 18/02 A3004 RMK A01
KGOO 071735Z AUTO 25004KT 10SM CLR 18/03 A3004 RMK A01
KGOO 071715Z AUTO 00000KT 10SM CLR 17/03 A3003 RMK A01
KGOO 071655Z AUTO 00000KT 10SM CLR 15/02 A3003 RMK A01
KGOO 071630Z AUTO 00000KT 10SM CLR 14/03 A3003 RMK A01
KGOO 071615Z AUTO 00000KT 10SM CLR 14/03 A3003 RMK A01
KGOO 071555Z AUTO 00000KT 10SM CLR 13/04 A3003 RMK A01
KGOO 071535Z AUTO 32005KT 10SM CLR 13/03 A3004 RMK A01
KGOO 071515Z AUTO 00000KT 10SM CLR 13/03 A3003 RMK A01
KGOO 071455Z AUTO 00000KT 10SM CLR 13/03 A3002 RMK A01
KGOO 071435Z AUTO 00000KT 10SM CLR 12/03 A3002 RMK A01
KGOO 071415Z AUTO 00000KT 10SM CLR 11/03 A3002 RMK A01
KGOO 071355Z AUTO 00000KT 10SM CLR 10/03 A3001 RMK A01
KGOO 071335Z AUTO 00000KT 10SM CLR 11/03 A3000 RMK A01
KGOO 071315Z AUTO 00000KT 10SM CLR 09/03 A2999 RMK A01
KGOO 071255Z AUTO 00000KT 10SM CLR 10/03 A3000 RMK A01
KGOO 071235Z AUTO 00000KT 10SM CLR 10/03 A3000 RMK A01
KGOO 071215Z AUTO 00000KT 10SM CLR 11/03 A3000 RMK A01
KGOO 071155Z AUTO 00000KT 10SM CLR 11/03 A3000 RMK A01
KGOO 071135Z AUTO 00000KT 10SM CLR 12/03 A3000 RMK A01
KGOO 071115Z AUTO 00000KT 10SM CLR 12/02 A3000 RMK A01
KGOO 071055Z AUTO 00000KT 10SM CLR 12/02 A3000 RMK A01
KGOO 071035Z AUTO 00000KT 10SM CLR 11/02 A3000 RMK A01
KGOO 071015Z AUTO 00000KT 10SM CLR 12/02 A2999 RMK A01
KGOO 070955Z AUTO 00000KT 10SM CLR 10/03 A2999 RMK A01
KGOO 070935Z AUTO 00000KT 10SM CLR 11/03 A2999 RMK A01
KGOO 070915Z AUTO 13003KT 10SM CLR 12/03 A2999 RMK A01
KGOO 070855Z AUTO 11006G14KT 10SM CLR 12/03 A3000 RMK A01
KGOO 070835Z AUTO 12010KT 10SM CLR 12/03 A3000 RMK A01
KGOO 070815Z AUTO 12008G14KT 10SM CLR 12/03 A3001 RMK A01
KGOO 070755Z AUTO 13007KT 10SM CLR 12/03 A3003 RMK A01
KGOO 070735Z AUTO 00000KT 10SM CLR 12/03 A3004 RMK A01
KGOO 070715Z AUTO 00000KT 10SM CLR 12/04 A3003 RMK A01
KGOO 070655Z AUTO 00000KT 10SM CLR 12/04 A3003 RMK A01
KGOO 070635Z AUTO 00000KT 10SM CLR 13/04 A3002 RMK A01
KGOO 070615Z AUTO 00000KT 10SM CLR 13/03 A3003 RMK A01
KGOO 070555Z AUTO 00000KT 10SM CLR 14/03 A3003 RMK A01
KGOO 070535Z AUTO 00000KT 10SM CLR 14/03 A3003 RMK A01
KGOO 070515Z AUTO 00000KT 10SM CLR 15/03 A3004 RMK A01
KGOO 070455Z AUTO 00000KT 10SM CLR 15/03 RMK A01
KGOO 070435Z AUTO 00000KT 10SM CLR 15/03 A3004 RMK A01
KGOO 070415Z AUTO 00000KT 10SM CLR 15/03 A3004 RMK A01
KGOO 070355Z AUTO 00000KT 10SM CLR 16/03 A3004 RMK A01
KGOO 070335Z AUTO 00000KT 10SM CLR 16/03 A3003 RMK A01
KGOO 070315Z AUTO 00000KT 10SM CLR 17/04 A3003 RMK A01
KGOO 070255Z AUTO 00000KT 10SM CLR 18/05 A3003 RMK A01
KGOO 070235Z AUTO 00000KT 10SM CLR 19/05 A3002 RMK A01
KGOO 070215Z AUTO 00000KT 10SM CLR 20/05 A3002 RMK A01
KGOO 070155Z AUTO 00000G11KT 10SM CLR 21/05 A3002 RMK A01
KGOO 070135Z AUTO 00000KT 10SM CLR 22/02 A3002 RMK A01
KGOO 070110Z AUTO 00000KT 10SM CLR 22/01 A3003 RMK A01
KGOO 070055Z AUTO VRB04G10KT 10SM CLR 23/02 A3003 RMK A01
KGOO 070030Z AUTO 00000KT 10SM CLR 25/01 A3003 RMK A01
KGOO 070015Z AUTO 00000KT 10SM CLR 24/00 A3003 RMK A01
KGOO 062355Z AUTO 00000KT 10SM CLR 25/00 A3003 RMK A01
KGOO 062335Z AUTO 00000KT 10SM CLR 25/00 A3004 RMK A01
KGOO 062315Z AUTO 00000G10KT 10SM CLR 25/02 A3004 RMK A01
KGOO 062250Z AUTO VRB04G11KT 10SM CLR 25/M01 A3005 RMK A01
KGOO 062235Z AUTO VRB06KT 10SM CLR 25/01 A3005 RMK A01
KGOO 062215Z AUTO 00000KT 10SM CLR 25/01 A3006 RMK A01
KGOO 062155Z AUTO 24007G14KT 10SM CLR 24/01 A3006 RMK A01
KGOO 062135Z AUTO 00000G13KT 10SM CLR 25/01 A3006 RMK A01
KGOO 062115Z AUTO 25008KT 210V270 10SM CLR 25/01 A3006 RMK A01
KGOO 062055Z AUTO VRB06G11KT 10SM CLR 26/00 A3006 RMK A01
KGOO 062035Z AUTO 21005KT 10SM CLR 26/00 A3005 RMK A01
KGOO 062015Z AUTO 00000G10KT 10SM CLR 26/00 A3006 RMK A01
KGOO 061955Z AUTO 16007KT 140V200 10SM CLR 26/01 A3006 RMK A01
KGOO 061935Z AUTO VRB05KT 10SM CLR 26/M01 A3006 RMK A01
KGOO 061915Z AUTO 00000KT 10SM CLR 26/M01 A3006 RMK A01
KGOO 061855Z AUTO VRB04KT 10SM CLR 25/M02 A3006 RMK A01